Time;durP1;ratioP1;P1;durP2;ratioP2;P2;SDS_P1;SDS_P2;PMS_P1;PMS_P2;Temp;Humidity;BMP_temperature;BMP_pressure;BME280_temperature;BME280_humidity;BME280_pressure;Samples;Min_cycle;Max_cycle;Signal;HPM_P1;HPM_P2
2022/01/05 00:00:43;;;;;;;2.03;0.28;;;;;;;-0.79;100.00;100023.09;5058991;28;20086;-47
2022/01/05 00:03:09;;;;;;;2.60;0.40;;;;;;;-0.70;100.00;100024.94;5059183;28;20412;-51
2022/01/05 00:05:35;;;;;;;1.00;0.25;;;;;;;-0.71;100.00;100019.84;5060369;28;20386;-51
2022/01/05 00:08:01;;;;;;;5.93;0.38;;;;;;;-0.76;100.00;100028.03;5060030;28;20366;-52
2022/01/05 00:10:26;;;;;;;3.03;0.43;;;;;;;-0.66;100.00;100039.34;5060609;28;20040;-53
2022/01/05 00:12:52;;;;;;;5.20;0.65;;;;;;;-0.62;100.00;100021.69;5061205;28;20037;-49
2022/01/05 00:15:17;;;;;;;0.57;0.13;;;;;;;-0.66;100.00;100015.91;5057871;28;20124;-48
2022/01/05 00:17:43;;;;;;;4.55;0.60;;;;;;;-0.68;100.00;100017.81;5053214;28;20469;-52
2022/01/05 00:20:09;;;;;;;1.42;0.20;;;;;;;-0.46;100.00;100018.59;5058162;28;20035;-48
2022/01/05 00:22:35;;;;;;;6.00;0.50;;;;;;;-0.47;100.00;100015.16;5056757;28;20057;-50
2022/01/05 00:25:00;;;;;;;9.82;0.52;;;;;;;-0.55;100.00;100016.75;5058823;28;20043;-51
2022/01/05 00:27:26;;;;;;;4.25;0.30;;;;;;;-0.70;100.00;100016.28;5059202;28;20043;-49
2022/01/05 00:29:51;;;;;;;6.85;0.57;;;;;;;-0.83;100.00;100021.69;5059506;28;20032;-55
2022/01/05 00:32:17;;;;;;;6.85;0.55;;;;;;;-0.84;100.00;100022.66;5062347;28;20064;-54
2022/01/05 00:34:42;;;;;;;7.07;0.68;;;;;;;-0.76;100.00;100037.63;5058223;28;20063;-49
2022/01/05 00:37:07;;;;;;;3.25;0.52;;;;;;;-0.88;100.00;100036.88;5055991;28;20398;-52
2022/01/05 00:39:33;;;;;;;5.57;0.88;;;;;;;-0.75;100.00;100047.09;5055946;28;20083;-53
2022/01/05 00:41:58;;;;;;;5.22;0.22;;;;;;;-0.71;100.00;100046.69;5054414;28;20123;-51
2022/01/05 00:44:24;;;;;;;2.08;0.68;;;;;;;-0.83;100.00;100039.91;5053141;28;20040;-50
2022/01/05 00:46:50;;;;;;;5.75;0.82;;;;;;;-0.91;100.00;100050.97;5057306;28;20458;-51
2022/01/05 00:49:16;;;;;;;7.47;0.55;;;;;;;-0.88;100.00;100052.50;5059650;28;20036;-51
2022/01/05 00:51:41;;;;;;;2.67;0.50;;;;;;;-0.95;100.00;100054.78;5054469;28;20029;-54
2022/01/05 00:54:06;;;;;;;0.38;0.38;;;;;;;-0.82;100.00;100059.00;5055417;28;20033;-53
2022/01/05 00:56:32;;;;;;;18.02;1.65;;;;;;;-0.81;100.00;100058.03;5065075;28;20465;-51
2022/01/05 00:58:58;;;;;;;2.67;0.03;;;;;;;-0.86;100.00;100066.22;5059251;28;20044;-52
2022/01/05 01:01:23;;;;;;;9.80;0.30;;;;;;;-0.97;100.00;100053.28;5065181;28;20557;-53
2022/01/05 01:03:49;;;;;;;2.78;0.30;;;;;;;-0.95;100.00;100056.56;5057723;28;20044;-49
2022/01/05 01:06:15;;;;;;;5.57;0.45;;;;;;;-0.92;100.00;100051.13;5045833;28;20108;-52
2022/01/05 01:08:40;;;;;;;5.78;0.22;;;;;;;-0.92;100.00;100057.13;5066812;28;20028;-50
2022/01/05 01:11:06;;;;;;;8.77;0.30;;;;;;;-0.80;100.00;100054.44;5064388;28;20028;-52
2022/01/05 01:13:32;;;;;;;6.20;0.90;;;;;;;-0.80;100.00;100051.84;5065094;28;20032;-51
2022/01/05 01:15:57;;;;;;;11.30;0.40;;;;;;;-0.84;100.00;100060.88;5055972;28;20489;-51
2022/01/05 01:18:23;;;;;;;0.75;0.13;;;;;;;-0.75;100.00;100067.91;5065366;28;20048;-51
2022/01/05 01:20:48;;;;;;;6.45;0.77;;;;;;;-0.67;100.00;100071.53;5066699;28;20053;-50
2022/01/05 01:23:18;;;;;;;2.85;0.65;;;;;;;-0.77;100.00;100069.84;5064640;28;20372;-49
2022/01/05 01:25:43;;;;;;;3.13;0.65;;;;;;;-0.79;100.00;100069.13;5059495;28;20028;-49
2022/01/05 01:28:09;;;;;;;10.48;1.73;;;;;;;-0.83;100.00;100063.34;5061700;28;20035;-53
2022/01/05 01:30:34;;;;;;;6.13;0.20;;;;;;;-0.78;100.00;100065.56;5061590;28;20856;-53
2022/01/05 01:33:00;;;;;;;2.50;0.38;;;;;;;-0.92;100.00;100069.34;5066775;28;20036;-53
2022/01/05 01:35:25;;;;;;;4.57;0.28;;;;;;;-1.03;100.00;100072.81;5067071;28;20035;-50
2022/01/05 01:37:52;;;;;;;6.50;0.38;;;;;;;-1.08;100.00;100069.78;5060613;28;20036;-48
2022/01/05 01:40:19;;;;;;;1.55;0.80;;;;;;;-1.03;100.00;100080.63;5060816;28;20059;-52
2022/01/05 01:42:48;;;;;;;7.13;0.32;;;;;;;-0.89;100.00;100088.13;5064275;28;20611;-54
2022/01/05 01:45:14;;;;;;;4.07;0.30;;;;;;;-0.85;100.00;100087.84;5055216;28;20044;-53
2022/01/05 01:47:40;;;;;;;6.75;0.47;;;;;;;-0.81;100.00;100090.09;5052863;28;20025;-53
2022/01/05 01:50:06;;;;;;;1.77;0.88;;;;;;;-0.80;100.00;100083.94;5064202;28;20040;-54
2022/01/05 01:52:32;;;;;;;2.15;0.17;;;;;;;-0.89;100.00;100087.28;5067362;28;20032;-52
2022/01/05 01:54:57;;;;;;;2.88;0.55;;;;;;;-0.86;100.00;100100.06;5063196;28;20509;-55
2022/01/05 01:57:24;;;;;;;0.32;0.08;;;;;;;-0.74;100.00;100096.44;5051350;28;20533;-51
2022/01/05 01:59:49;;;;;;;1.42;0.20;;;;;;;-0.72;100.00;100091.13;5060018;28;20607;-48
2022/01/05 02:02:16;;;;;;;0.77;0.10;;;;;;;-0.50;100.00;100108.34;5062161;28;20060;-52
2022/01/05 02:04:43;;;;;;;4.13;0.50;;;;;;;-0.41;100.00;100111.97;5060437;28;20028;-49
2022/01/05 02:07:09;;;;;;;7.13;0.40;;;;;;;-0.39;100.00;100094.44;5050715;28;20116;-52
2022/01/05 02:09:36;;;;;;;2.10;0.20;;;;;;;-0.37;100.00;100098.56;5065448;28;20036;-50
2022/01/05 02:12:03;;;;;;;6.05;0.15;;;;;;;-0.34;100.00;100102.69;5060885;28;20025;-48
2022/01/05 02:14:28;;;;;;;0.70;0.20;;;;;;;-0.28;100.00;100103.00;5061545;28;20047;-50
2022/01/05 02:16:55;;;;;;;8.98;0.40;;;;;;;-0.33;100.00;100094.75;5058817;28;20037;-50
2022/01/05 02:19:21;;;;;;;2.10;0.45;;;;;;;-0.26;100.00;100097.63;5063665;28;20489;-53
2022/01/05 02:21:46;;;;;;;0.65;0.38;;;;;;;-0.22;100.00;100093.81;5065526;28;20040;-49
2022/01/05 02:24:12;;;;;;;2.53;0.38;;;;;;;-0.14;100.00;100093.16;5062659;28;20130;-55
2022/01/05 02:26:38;;;;;;;7.63;0.15;;;;;;;-0.20;100.00;100099.75;5065689;28;20039;-53
2022/01/05 02:29:05;;;;;;;1.05;0.10;;;;;;;-0.32;100.00;100104.19;5060335;28;20406;-54
2022/01/05 02:31:31;;;;;;;2.35;0.82;;;;;;;-0.44;100.00;100107.84;5063490;28;20033;-50
2022/01/05 02:33:56;;;;;;;3.00;1.30;;;;;;;-0.31;100.00;100107.63;5064907;28;20036;-53
2022/01/05 02:36:21;;;;;;;2.47;0.20;;;;;;;-0.33;100.00;100104.34;5052738;28;20032;-50
2022/01/05 02:38:50;;;;;;;4.03;0.35;;;;;;;-0.31;100.00;100098.06;5065071;28;20075;-51
2022/01/05 02:41:16;;;;;;;8.27;0.28;;;;;;;-0.47;100.00;100102.88;5064988;28;20471;-55
2022/01/05 02:43:43;;;;;;;2.58;0.40;;;;;;;-0.45;100.00;100099.19;5065324;28;20115;-55
2022/01/05 02:46:11;;;;;;;3.30;0.30;;;;;;;-0.51;100.00;100104.94;5052027;28;20489;-49
2022/01/05 02:48:37;;;;;;;0.77;0.65;;;;;;;-0.42;100.00;100105.09;5061592;28;20397;-53
2022/01/05 02:51:05;;;;;;;1.65;0.38;;;;;;;-0.30;100.00;100109.28;5059272;28;20059;-54
2022/01/05 02:53:31;;;;;;;4.57;0.10;;;;;;;-0.39;100.00;100105.66;5051080;28;20357;-49
2022/01/05 02:55:56;;;;;;;1.75;0.43;;;;;;;-0.27;100.00;100104.63;5057486;28;20033;-49
2022/01/05 02:58:22;;;;;;;6.32;0.20;;;;;;;-0.31;100.00;100108.47;5060892;28;20047;-48
2022/01/05 03:00:47;;;;;;;4.85;1.58;;;;;;;-0.50;100.00;100118.78;5062712;28;20040;-53
2022/01/05 03:03:12;;;;;;;1.52;0.10;;;;;;;-0.49;100.00;100115.22;5051234;28;20036;-51
2022/01/05 03:05:38;;;;;;;4.60;0.50;;;;;;;-0.39;100.00;100123.91;5061485;28;20113;-51
2022/01/05 03:08:04;;;;;;;9.77;0.50;;;;;;;-0.50;100.00;100129.19;5062487;28;20049;-52
2022/01/05 03:10:29;;;;;;;6.32;1.48;;;;;;;-0.43;100.00;100127.72;5061167;28;20042;-53
2022/01/05 03:12:55;;;;;;;2.53;0.40;;;;;;;-0.37;100.00;100135.03;5063960;28;20769;-54
2022/01/05 03:15:26;;;;;;;2.25;0.45;;;;;;;-0.29;100.00;100140.41;5062253;28;20036;-48
2022/01/05 03:17:52;;;;;;;5.75;0.60;;;;;;;-0.31;100.00;100139.75;5061409;28;20025;-52
2022/01/05 03:20:17;;;;;;;2.13;0.28;;;;;;;-0.20;100.00;100140.63;5058558;28;20063;-49
2022/01/05 03:22:43;;;;;;;1.17;0.25;;;;;;;-0.27;100.00;100135.09;5063177;28;20063;-48
2022/01/05 03:25:15;;;;;;;5.40;0.30;;;;;;;-0.30;100.00;100141.38;5056789;28;20029;-48
2022/01/05 03:27:45;;;;;;;6.18;0.25;;;;;;;-0.37;100.00;100140.22;5058722;28;20056;-51
2022/01/05 03:30:13;;;;;;;8.32;0.55;;;;;;;-0.46;100.00;100147.06;5061733;28;20070;-49
2022/01/05 03:32:52;;;;;;;2.40;0.15;;;;;;;-0.29;100.00;100143.00;5049477;28;20497;-51
2022/01/05 03:35:18;;;;;;;4.30;0.17;;;;;;;-0.43;100.00;100145.97;5059413;28;20037;-50
2022/01/05 03:37:43;;;;;;;11.50;0.47;;;;;;;-0.26;100.00;100144.53;5062801;28;20432;-52
2022/01/05 03:40:09;;;;;;;7.88;0.45;;;;;;;-0.24;100.00;100146.06;5055972;28;20052;-52
2022/01/05 03:42:34;;;;;;;5.22;0.25;;;;;;;-0.20;100.00;100140.63;5065254;28;20063;-52
2022/01/05 03:45:00;;;;;;;5.40;0.20;;;;;;;-0.15;100.00;100141.88;5054040;28;20067;-51
2022/01/05 03:47:25;;;;;;;3.15;0.50;;;;;;;-0.27;100.00;100145.50;5060189;28;20052;-53
2022/01/05 03:49:50;;;;;;;2.25;0.15;;;;;;;-0.32;100.00;100147.66;5055552;28;20041;-55
2022/01/05 03:52:16;;;;;;;2.20;0.10;;;;;;;-0.32;100.00;100158.09;5062555;28;20033;-51
2022/01/05 03:54:41;;;;;;;0.60;0.30;;;;;;;-0.39;100.00;100162.16;5056353;28;20032;-48
2022/01/05 03:57:07;;;;;;;6.07;1.20;;;;;;;-0.48;100.00;100163.75;5054042;28;20048;-53
2022/01/05 03:59:32;;;;;;;3.15;0.28;;;;;;;-0.42;100.00;100162.41;5059188;28;20075;-48
2022/01/05 04:01:57;;;;;;;4.70;0.60;;;;;;;-0.47;100.00;100160.19;5048256;28;20044;-54
2022/01/05 04:04:23;;;;;;;5.43;0.20;;;;;;;-0.47;100.00;100163.63;5074618;28;20032;-54
2022/01/05 04:06:48;;;;;;;1.45;0.75;;;;;;;-0.50;100.00;100176.91;5064111;28;20044;-52
2022/01/05 04:09:14;;;;;;;0.82;0.82;;;;;;;-0.57;100.00;100190.56;5063171;28;20032;-51
2022/01/05 04:11:39;;;;;;;2.80;0.65;;;;;;;-0.61;100.00;100192.59;5063604;28;20028;-51
2022/01/05 04:14:04;;;;;;;8.18;0.75;;;;;;;-0.60;100.00;100196.00;5057685;28;20520;-48
2022/01/05 04:16:30;;;;;;;3.40;0.38;;;;;;;-0.69;100.00;100195.00;5055606;28;20036;-55
2022/01/05 04:18:55;;;;;;;9.40;1.30;;;;;;;-0.67;100.00;100196.53;5062152;28;20048;-53
2022/01/05 04:21:20;;;;;;;3.92;0.52;;;;;;;-0.78;100.00;100195.75;5052877;28;20029;-50
2022/01/05 04:23:46;;;;;;;7.22;0.20;;;;;;;-0.97;100.00;100189.44;5063767;28;20036;-54
2022/01/05 04:26:11;;;;;;;1.40;0.20;;;;;;;-1.11;100.00;100200.09;5061495;28;20028;-51
2022/01/05 04:28:37;;;;;;;2.55;0.20;;;;;;;-1.19;100.00;100199.91;5058471;28;20040;-51
2022/01/05 04:31:02;;;;;;;4.10;0.10;;;;;;;-1.28;100.00;100213.66;5066676;28;20028;-51
2022/01/05 04:33:28;;;;;;;8.52;0.75;;;;;;;-1.24;100.00;100204.63;5061527;28;20033;-50
2022/01/05 04:35:53;;;;;;;6.93;0.60;;;;;;;-1.20;100.00;100198.25;5066499;28;20035;-51
2022/01/05 04:38:18;;;;;;;4.90;0.25;;;;;;;-1.23;100.00;100217.53;5057504;28;20071;-48
2022/01/05 04:40:44;;;;;;;8.35;2.17;;;;;;;-1.22;100.00;100200.16;5065511;28;20025;-52
2022/01/05 04:43:10;;;;;;;4.35;0.15;;;;;;;-1.17;100.00;100205.81;5063728;28;20424;-51
2022/01/05 04:45:35;;;;;;;2.78;0.10;;;;;;;-1.15;100.00;100199.53;5067301;28;20028;-52
2022/01/05 04:48:00;;;;;;;1.85;0.63;;;;;;;-1.14;100.00;100206.38;5058360;28;20484;-52
2022/01/05 04:50:26;;;;;;;5.72;0.50;;;;;;;-1.00;100.00;100205.28;5061481;28;20020;-52
2022/01/05 04:52:51;;;;;;;1.15;0.20;;;;;;;-0.80;100.00;100208.06;5068638;28;20032;-52
2022/01/05 04:55:17;;;;;;;7.03;0.82;;;;;;;-0.75;100.00;100201.53;5061829;28;20519;-53
2022/01/05 04:57:42;;;;;;;6.57;0.52;;;;;;;-0.71;100.00;100204.72;5066104;28;20032;-51
2022/01/05 05:00:08;;;;;;;5.15;0.15;;;;;;;-0.72;100.00;100210.88;5054904;28;20059;-54
2022/01/05 05:02:33;;;;;;;4.93;0.77;;;;;;;-0.85;100.00;100212.81;5068017;28;20032;-49
2022/01/05 05:04:58;;;;;;;4.32;0.60;;;;;;;-0.88;100.00;100229.50;5055865;28;20040;-50
2022/01/05 05:07:24;;;;;;;1.65;0.68;;;;;;;-0.83;100.00;100229.94;5060708;28;20032;-51
2022/01/05 05:09:49;;;;;;;12.15;0.85;;;;;;;-0.87;100.00;100231.16;5061266;28;20060;-50
2022/01/05 05:12:14;;;;;;;7.15;0.68;;;;;;;-0.82;100.00;100236.00;5061117;28;20059;-54
2022/01/05 05:14:40;;;;;;;4.00;0.80;;;;;;;-0.67;100.00;100238.19;5057714;28;20846;-51
2022/01/05 05:17:05;;;;;;;7.25;1.13;;;;;;;-0.62;100.00;100231.78;5062079;28;20119;-50
2022/01/05 05:19:31;;;;;;;6.22;0.40;;;;;;;-0.60;100.00;100235.91;5058951;28;20085;-54
2022/01/05 05:21:57;;;;;;;7.32;0.80;;;;;;;-0.63;100.00;100246.56;5065881;28;20070;-56
2022/01/05 05:24:22;;;;;;;10.30;1.30;;;;;;;-0.44;100.00;100248.50;5057567;28;20116;-54
2022/01/05 05:26:48;;;;;;;13.27;1.30;;;;;;;-0.33;100.00;100245.84;5059008;28;20676;-53
2022/01/05 05:29:13;;;;;;;7.10;0.47;;;;;;;-0.29;100.00;100243.81;5066586;28;20029;-50
2022/01/05 05:31:39;;;;;;;2.92;1.80;;;;;;;-0.23;100.00;100243.31;5059459;28;20021;-48
2022/01/05 05:34:04;;;;;;;2.05;0.40;;;;;;;-0.27;100.00;100240.13;5054648;28;20025;-50
2022/01/05 05:36:29;;;;;;;2.88;0.40;;;;;;;-0.22;100.00;100229.31;5063857;28;20498;-53
2022/01/05 05:38:55;;;;;;;7.93;0.77;;;;;;;-0.15;100.00;100233.06;5064619;28;20429;-48
2022/01/05 05:41:20;;;;;;;3.95;0.20;;;;;;;-0.20;100.00;100232.63;5062277;28;20042;-51
2022/01/05 05:43:48;;;;;;;7.15;1.05;;;;;;;-0.32;100.00;100231.88;5061756;28;20559;-51
2022/01/05 05:46:13;;;;;;;4.85;1.10;;;;;;;-0.31;100.00;100240.50;5059770;28;20687;-53
2022/01/05 05:48:38;;;;;;;4.00;0.13;;;;;;;-0.28;100.00;100237.66;5064278;28;20028;-47
2022/01/05 05:51:04;;;;;;;1.48;0.22;;;;;;;-0.32;100.00;100242.28;5056001;28;20032;-53
2022/01/05 05:53:29;;;;;;;2.47;0.20;;;;;;;-0.38;100.00;100253.22;5057855;28;20074;-54
2022/01/05 05:55:54;;;;;;;2.28;0.50;;;;;;;-0.40;100.00;100251.69;5064726;28;20037;-53
2022/01/05 05:58:20;;;;;;;3.60;0.28;;;;;;;-0.36;100.00;100256.53;5056973;28;20040;-54
2022/01/05 06:00:45;;;;;;;12.13;0.63;;;;;;;-0.32;100.00;100260.53;5064123;28;20064;-53
2022/01/05 06:03:10;;;;;;;7.50;0.50;;;;;;;-0.40;100.00;100264.72;5056075;28;20097;-52
2022/01/05 06:05:36;;;;;;;1.48;0.20;;;;;;;-0.49;100.00;100272.34;5064463;28;20553;-49
2022/01/05 06:08:01;;;;;;;9.75;0.43;;;;;;;-0.38;100.00;100279.28;5063633;28;20123;-51
2022/01/05 06:10:27;;;;;;;4.32;0.45;;;;;;;-0.39;100.00;100282.81;5066049;28;20403;-53
2022/01/05 06:12:52;;;;;;;1.73;0.22;;;;;;;-0.30;100.00;100287.28;5055801;28;20561;-50
2022/01/05 06:15:18;;;;;;;0.90;0.20;;;;;;;-0.29;100.00;100283.72;5057700;28;20051;-50
2022/01/05 06:17:43;;;;;;;5.70;0.30;;;;;;;-0.28;100.00;100290.59;5062453;28;20502;-51
2022/01/05 06:20:10;;;;;;;3.83;0.43;;;;;;;-0.20;100.00;100284.75;5061769;28;20505;-50
2022/01/05 06:22:41;;;;;;;5.40;0.35;;;;;;;-0.25;100.00;100281.69;5060950;28;20060;-51
2022/01/05 06:25:08;;;;;;;6.00;0.10;;;;;;;-0.25;100.00;100287.72;5055367;28;20036;-52
2022/01/05 06:27:33;;;;;;;8.15;0.73;;;;;;;-0.28;100.00;100288.00;5061761;28;20369;-54
2022/01/05 06:30:04;;;;;;;1.48;0.20;;;;;;;-0.29;100.00;100288.94;5062944;28;20119;-50
2022/01/05 06:32:29;;;;;;;1.40;0.30;;;;;;;-0.30;100.00;100294.28;5061874;28;20469;-51
2022/01/05 06:34:55;;;;;;;2.85;1.02;;;;;;;-0.32;100.00;100289.19;5063027;28;20281;-51
2022/01/05 06:37:20;;;;;;;1.70;1.05;;;;;;;-0.35;100.00;100294.66;5060909;28;20035;-49
2022/01/05 06:39:45;;;;;;;4.25;0.68;;;;;;;-0.38;100.00;100313.13;5063020;28;20771;-52
2022/01/05 06:42:11;;;;;;;6.60;0.57;;;;;;;-0.39;100.00;100314.06;5053894;28;20087;-54
2022/01/05 06:44:36;;;;;;;8.27;0.30;;;;;;;-0.38;100.00;100315.75;5053431;28;20041;-53
2022/01/05 06:47:01;;;;;;;2.13;0.28;;;;;;;-0.42;100.00;100316.94;5060886;28;20040;-51
2022/01/05 06:49:27;;;;;;;7.78;0.85;;;;;;;-0.54;100.00;100320.50;5058508;28;20036;-49
2022/01/05 06:51:52;;;;;;;9.48;0.65;;;;;;;-0.49;100.00;100323.56;5054747;28;20043;-52
2022/01/05 06:54:17;;;;;;;5.15;0.40;;;;;;;-0.54;100.00;100337.00;5057100;28;20037;-50
2022/01/05 06:56:43;;;;;;;2.78;0.20;;;;;;;-0.53;100.00;100337.81;5060420;28;20127;-54
2022/01/05 06:59:08;;;;;;;5.35;0.40;;;;;;;-0.50;100.00;100334.97;5059543;28;20457;-54
2022/01/05 07:01:33;;;;;;;7.32;0.75;;;;;;;-0.49;100.00;100349.63;5058865;28;20390;-53
2022/01/05 07:03:59;;;;;;;2.47;0.52;;;;;;;-0.43;100.00;100351.75;5059193;28;20482;-49
2022/01/05 07:06:25;;;;;;;2.92;0.30;;;;;;;-0.45;100.00;100343.22;5063987;28;20040;-52
2022/01/05 07:08:50;;;;;;;6.60;0.32;;;;;;;-0.33;100.00;100341.44;5053572;28;20060;-52
2022/01/05 07:11:16;;;;;;;5.28;0.65;;;;;;;-0.39;100.00;100349.72;5061871;28;20032;-53
2022/01/05 07:13:41;;;;;;;2.92;0.20;;;;;;;-0.32;100.00;100343.06;5054330;28;20935;-51
2022/01/05 07:16:06;;;;;;;8.82;0.50;;;;;;;-0.25;100.00;100346.84;5063119;28;20075;-53
2022/01/05 07:18:32;;;;;;;2.78;0.28;;;;;;;-0.22;100.00;100350.00;5062613;28;20124;-50
2022/01/05 07:20:57;;;;;;;6.65;0.65;;;;;;;-0.28;100.00;100355.72;5054635;28;20055;-53
2022/01/05 07:23:23;;;;;;;5.30;0.90;;;;;;;-0.24;100.00;100361.50;5063882;28;20124;-49
2022/01/05 07:25:48;;;;;;;13.05;0.68;;;;;;;-0.16;100.00;100361.72;5058921;28;20127;-50
2022/01/05 07:28:13;;;;;;;4.43;0.32;;;;;;;-0.19;100.00;100358.53;5058440;28;20040;-50
2022/01/05 07:30:39;;;;;;;17.23;0.65;;;;;;;-0.25;100.00;100360.69;5061328;28;20044;-52
2022/01/05 07:33:04;;;;;;;4.75;0.22;;;;;;;-0.25;100.00;100378.94;5062487;28;20032;-51
2022/01/05 07:35:29;;;;;;;7.45;2.03;;;;;;;-0.26;100.00;100372.09;5058839;28;20045;-48
2022/01/05 07:37:55;;;;;;;12.57;0.45;;;;;;;-0.22;100.00;100378.69;5057979;28;20024;-51
2022/01/05 07:40:20;;;;;;;9.20;0.60;;;;;;;-0.19;100.00;100382.00;5056825;28;20533;-53
2022/01/05 07:42:45;;;;;;;4.68;1.45;;;;;;;-0.17;100.00;100380.09;5053201;28;20127;-51
2022/01/05 07:45:11;;;;;;;7.32;0.80;;;;;;;-0.20;100.00;100394.22;5056906;28;20024;-50
2022/01/05 07:47:36;;;;;;;10.27;0.95;;;;;;;-0.26;100.00;100402.50;5061088;28;20033;-53
2022/01/05 07:50:04;;;;;;;3.10;0.17;;;;;;;-0.37;100.00;100403.34;5052502;28;20055;-55
2022/01/05 07:52:30;;;;;;;3.22;0.35;;;;;;;-0.33;100.00;100417.00;5055264;28;20462;-51
2022/01/05 07:54:55;;;;;;;11.25;0.60;;;;;;;-0.25;100.00;100419.81;5052999;28;20024;-53
2022/01/05 07:57:20;;;;;;;6.60;0.50;;;;;;;-0.20;100.00;100435.91;5055391;28;20081;-51
2022/01/05 07:59:46;;;;;;;5.75;0.52;;;;;;;-0.12;100.00;100430.91;5055864;28;20471;-50
2022/01/05 08:02:12;;;;;;;1.75;0.10;;;;;;;-0.08;100.00;100434.06;5057597;28;20482;-50
2022/01/05 08:04:37;;;;;;;4.40;1.13;;;;;;;-0.19;100.00;100440.16;5055417;28;20090;-54
2022/01/05 08:07:02;;;;;;;8.07;1.00;;;;;;;-0.06;100.00;100440.81;5058885;28;20088;-52
2022/01/05 08:09:29;;;;;;;5.35;1.90;;;;;;;-0.09;100.00;100445.47;5059964;28;20032;-49
2022/01/05 08:11:58;;;;;;;5.78;0.52;;;;;;;-0.08;100.00;100452.31;5061562;28;20029;-53
2022/01/05 08:14:23;;;;;;;10.27;0.90;;;;;;;-0.12;100.00;100450.94;5065330;28;20037;-50
2022/01/05 08:16:49;;;;;;;5.32;0.60;;;;;;;-0.21;100.00;100452.47;5057582;28;20025;-55
2022/01/05 08:19:14;;;;;;;5.85;1.30;;;;;;;-0.23;100.00;100455.22;5060284;28;20875;-51
2022/01/05 08:21:47;;;;;;;4.53;1.85;;;;;;;-0.33;100.00;100451.69;5056905;28;20466;-52
2022/01/05 08:24:12;;;;;;;5.53;1.70;;;;;;;-0.40;100.00;100450.50;5059897;28;20036;-51
2022/01/05 08:26:38;;;;;;;10.73;0.52;;;;;;;-0.36;100.00;100470.16;5054306;28;20031;-51
2022/01/05 08:29:03;;;;;;;8.60;0.20;;;;;;;-0.31;100.00;100468.03;5055120;28;20067;-50
2022/01/05 08:31:28;;;;;;;2.47;0.30;;;;;;;-0.17;100.00;100469.53;5058790;28;20067;-50
2022/01/05 08:33:56;;;;;;;12.57;1.08;;;;;;;-0.11;100.00;100473.44;5062156;28;20036;-53
2022/01/05 08:36:23;;;;;;;1.73;0.52;;;;;;;0.00;100.00;100473.41;5054856;28;20074;-54
2022/01/05 08:38:48;;;;;;;1.67;0.38;;;;;;;0.08;100.00;100467.56;5057698;28;20037;-52
2022/01/05 08:41:13;;;;;;;5.15;0.98;;;;;;;0.05;100.00;100476.44;5056050;28;20402;-49
2022/01/05 08:43:39;;;;;;;2.53;0.15;;;;;;;0.05;100.00;100471.22;5058109;28;20075;-49
2022/01/05 08:46:04;;;;;;;5.55;1.45;;;;;;;-0.01;100.00;100490.81;5060785;28;20044;-53
2022/01/05 08:48:29;;;;;;;5.95;0.98;;;;;;;-0.06;100.00;100502.56;5051793;28;20557;-52
2022/01/05 08:50:55;;;;;;;3.35;0.38;;;;;;;-0.13;100.00;100506.59;5056438;28;20423;-53
2022/01/05 08:53:21;;;;;;;8.95;0.52;;;;;;;-0.13;100.00;100512.66;5053821;28;20777;-53
2022/01/05 08:55:49;;;;;;;3.60;0.50;;;;;;;-0.03;100.00;100521.41;5059747;28;20300;-50
2022/01/05 08:58:16;;;;;;;3.38;0.57;;;;;;;-0.05;100.00;100519.88;5055356;28;20041;-51
2022/01/05 09:00:41;;;;;;;9.13;0.35;;;;;;;0.04;100.00;100513.91;5061642;28;20032;-50
2022/01/05 09:03:07;;;;;;;3.38;0.30;;;;;;;0.10;100.00;100507.38;5059498;28;20531;-52
2022/01/05 09:05:33;;;;;;;3.33;0.38;;;;;;;0.19;100.00;100512.69;5058703;28;20405;-51
2022/01/05 09:07:59;;;;;;;2.67;0.32;;;;;;;0.19;100.00;100517.91;5057087;28;20043;-50
2022/01/05 09:10:25;;;;;;;3.72;0.20;;;;;;;0.19;100.00;100523.13;5058675;28;20033;-53
2022/01/05 09:12:50;;;;;;;7.82;0.55;;;;;;;0.29;100.00;100533.66;5058952;28;20470;-54
2022/01/05 09:15:16;;;;;;;7.25;0.52;;;;;;;0.42;100.00;100530.88;5066163;28;20035;-50
2022/01/05 09:17:41;;;;;;;1.13;0.40;;;;;;;0.50;100.00;100527.66;5061815;28;20506;-52
2022/01/05 09:20:08;;;;;;;1.88;0.10;;;;;;;0.54;100.00;100532.50;5060365;28;20405;-53
2022/01/05 09:22:38;;;;;;;1.05;0.63;;;;;;;0.59;100.00;100532.94;5053667;28;20033;-55
2022/01/05 09:25:06;;;;;;;1.13;0.30;;;;;;;0.70;100.00;100545.13;5054707;28;20029;-51
2022/01/05 09:27:32;;;;;;;7.90;1.20;;;;;;;0.82;100.00;100527.59;5050970;28;20039;-54
2022/01/05 09:29:57;;;;;;;8.57;0.80;;;;;;;0.87;100.00;100533.28;5053637;28;20032;-53
2022/01/05 09:32:23;;;;;;;1.08;0.10;;;;;;;0.81;100.00;100544.22;5055703;28;20036;-54
2022/01/05 09:34:50;;;;;;;4.10;0.55;;;;;;;0.75;100.00;100544.72;5053740;28;20051;-52
2022/01/05 09:37:26;;;;;;;5.90;0.73;;;;;;;0.87;100.00;100544.53;5050488;28;20044;-54
2022/01/05 09:42:37;;;;;;;4.40;0.47;;;;;;;1.16;100.00;100543.94;5058778;28;20048;-53
2022/01/05 09:45:23;;;;;;;14.25;1.25;;;;;;;1.29;100.00;100538.47;5053318;28;20401;-51
2022/01/05 09:47:54;;;;;;;9.23;0.65;;;;;;;1.43;100.00;100547.78;5059128;28;20541;-49
2022/01/05 09:50:23;;;;;;;2.47;0.35;;;;;;;1.43;100.00;100553.00;5058734;28;20056;-53
2022/01/05 09:52:49;;;;;;;5.82;0.40;;;;;;;1.40;100.00;100561.94;5051785;28;20037;-52
2022/01/05 09:55:15;;;;;;;10.95;0.68;;;;;;;1.32;100.00;100572.19;5056948;28;20566;-50
2022/01/05 09:57:43;;;;;;;3.67;1.10;;;;;;;1.35;100.00;100574.53;5087588;28;20071;-51
2022/01/05 10:00:12;;;;;;;4.88;0.65;;;;;;;1.39;100.00;100575.09;5059971;28;20032;-50
2022/01/05 10:02:38;;;;;;;3.17;1.90;;;;;;;1.39;100.00;100591.59;5055162;28;20045;-51
2022/01/05 10:05:05;;;;;;;4.40;0.55;;;;;;;1.44;100.00;100586.81;5057047;28;20098;-50
2022/01/05 10:07:31;;;;;;;3.40;0.77;;;;;;;1.48;100.00;100580.38;5049559;28;20082;-51
2022/01/05 10:09:56;;;;;;;3.40;0.40;;;;;;;1.57;100.00;100584.00;5061647;28;20036;-49
2022/01/05 10:12:22;;;;;;;9.70;0.65;;;;;;;1.66;100.00;100593.69;5055294;28;20043;-51
2022/01/05 10:14:48;;;;;;;1.83;0.75;;;;;;;1.73;100.00;100601.84;5059434;28;20525;-54
2022/01/05 10:17:22;;;;;;;1.67;0.30;;;;;;;1.68;100.00;100611.88;5055793;28;20025;-55
2022/01/05 10:19:58;;;;;;;8.02;0.82;;;;;;;1.60;100.00;100611.66;5060565;28;20041;-52
2022/01/05 10:22:27;;;;;;;3.03;0.47;;;;;;;1.68;100.00;100612.69;5061565;28;20462;-50
2022/01/05 10:24:56;;;;;;;8.73;0.55;;;;;;;1.75;100.00;100607.75;5051811;28;20462;-52
2022/01/05 10:27:24;;;;;;;6.82;1.20;;;;;;;1.73;100.00;100620.97;5055109;28;20465;-52
2022/01/05 10:30:13;;;;;;;4.57;0.40;;;;;;;1.79;100.00;100614.38;5055878;28;20021;-55
2022/01/05 10:32:42;;;;;;;5.10;0.28;;;;;;;1.83;100.00;100625.41;5050204;28;20129;-51
2022/01/05 10:35:12;;;;;;;5.32;0.95;;;;;;;1.97;100.00;100622.44;5063706;28;20462;-54
2022/01/05 10:37:41;;;;;;;7.50;0.88;;;;;;;2.05;100.00;100624.41;5058994;28;20032;-56
2022/01/05 10:40:08;;;;;;;3.53;0.80;;;;;;;2.06;100.00;100626.03;5058124;28;20032;-55
2022/01/05 10:42:35;;;;;;;5.82;0.88;;;;;;;2.11;100.00;100626.47;5061824;28;20089;-56
2022/01/05 10:45:02;;;;;;;0.82;0.20;;;;;;;2.12;100.00;100630.75;5056947;28;20026;-50
2022/01/05 10:47:28;;;;;;;1.58;0.47;;;;;;;2.16;100.00;100637.38;5051656;28;20033;-50
2022/01/05 10:49:54;;;;;;;9.13;1.10;;;;;;;2.26;100.00;100638.22;5059030;28;20025;-51
2022/01/05 10:52:26;;;;;;;0.65;0.15;;;;;;;2.38;100.00;100639.78;5058981;28;20883;-53
2022/01/05 10:54:51;;;;;;;8.27;0.57;;;;;;;2.45;100.00;100639.25;5057914;28;20087;-56
2022/01/05 10:57:17;;;;;;;7.35;0.75;;;;;;;2.54;100.00;100643.69;5057928;28;20494;-53
2022/01/05 10:59:45;;;;;;;6.05;0.85;;;;;;;2.60;100.00;100641.31;5058998;28;20398;-54
2022/01/05 11:02:32;;;;;;;5.38;0.80;;;;;;;2.65;100.00;100647.97;5054350;28;20071;-53
2022/01/05 11:05:09;;;;;;;4.85;0.20;;;;;;;2.68;100.00;100653.75;5061892;28;20090;-56
2022/01/05 11:07:39;;;;;;;3.67;1.27;;;;;;;2.70;100.00;100658.84;5057902;28;20493;-54
2022/01/05 11:10:17;;;;;;;3.15;0.60;;;;;;;2.72;100.00;100659.56;5060174;28;20321;-54
2022/01/05 11:12:45;;;;;;;5.15;0.65;;;;;;;2.77;100.00;100665.22;5056836;28;20024;-53
2022/01/05 11:15:34;;;;;;;5.63;0.40;;;;;;;2.84;100.00;100674.19;5063672;28;20027;-51
2022/01/05 11:18:15;;;;;;;6.70;0.40;;;;;;;2.90;100.00;100670.19;5056910;28;20032;-54